sensor_id;sensor_type;location;lat;lon;timestamp;P1;durP1;ratioP1;P2;durP2;ratioP2
2710;SDS011;20721;47.402;8.550;2023-09-18T00:00:05;5.62;;;5.62;;
2710;SDS011;20721;47.402;8.550;2023-09-18T00:02:05;6.53;;;6.53;;
2710;SDS011;20721;47.402;8.550;2023-09-18T00:04:05;6.14;;;6.14;;
2710;SDS011;20721;47.402;8.550;2023-09-18T00:06:05;5.68;;;5.68;;
2710;SDS011;20721;47.402;8.550;2023-09-18T00:08:05;5.60;;;5.60;;
2710;SDS011;20721;47.402;8.550;2023-09-18T00:10:05;6.15;;;6.15;;
2710;SDS011;20721;47.402;8.550;2023-09-18T00:13:05;4.69;;;4.69;;
2710;SDS011;20721;47.402;8.550;2023-09-18T00:15:05;5.38;;;5.38;;
2710;SDS011;20721;47.402;8.550;2023-09-18T00:17:10;5.04;;;5.03;;
2710;SDS011;20721;47.402;8.550;2023-09-18T00:19:05;4.89;;;4.89;;
2710;SDS011;20721;47.402;8.550;2023-09-18T00:21:05;5.07;;;5.07;;
2710;SDS011;20721;47.402;8.550;2023-09-18T00:23:05;5.07;;;5.07;;
2710;SDS011;20721;47.402;8.550;2023-09-18T00:25:05;5.16;;;5.15;;
2710;SDS011;20721;47.402;8.550;2023-09-18T00:27:05;4.68;;;4.68;;
2710;SDS011;20721;47.402;8.550;2023-09-18T00:30:05;4.80;;;4.80;;
2710;SDS011;20721;47.402;8.550;2023-09-18T00:32:06;4.32;;;4.32;;
2710;SDS011;20721;47.402;8.550;2023-09-18T00:34:05;4.70;;;4.70;;
2710;SDS011;20721;47.402;8.550;2023-09-18T00:36:05;4.60;;;4.60;;
2710;SDS011;20721;47.402;8.550;2023-09-18T00:38:05;4.40;;;4.40;;
2710;SDS011;20721;47.402;8.550;2023-09-18T00:40:06;3.85;;;3.85;;
2710;SDS011;20721;47.402;8.550;2023-09-18T00:42:05;4.14;;;4.14;;
2710;SDS011;20721;47.402;8.550;2023-09-18T00:44:05;4.08;;;4.08;;
2710;SDS011;20721;47.402;8.550;2023-09-18T00:46:05;4.22;;;4.22;;
2710;SDS011;20721;47.402;8.550;2023-09-18T00:48:05;3.58;;;3.58;;
2710;SDS011;20721;47.402;8.550;2023-09-18T00:50:06;3.50;;;3.50;;
2710;SDS011;20721;47.402;8.550;2023-09-18T00:52:06;3.50;;;3.50;;
2710;SDS011;20721;47.402;8.550;2023-09-18T00:54:05;3.29;;;3.29;;
2710;SDS011;20721;47.402;8.550;2023-09-18T00:56:07;3.89;;;3.89;;
2710;SDS011;20721;47.402;8.550;2023-09-18T00:58:06;3.46;;;3.46;;
2710;SDS011;20721;47.402;8.550;2023-09-18T01:00:05;3.89;;;3.89;;
2710;SDS011;20721;47.402;8.550;2023-09-18T01:02:05;3.41;;;3.41;;
2710;SDS011;20721;47.402;8.550;2023-09-18T01:04:06;3.71;;;3.71;;
2710;SDS011;20721;47.402;8.550;2023-09-18T01:06:05;3.26;;;3.26;;
2710;SDS011;20721;47.402;8.550;2023-09-18T01:08:05;3.32;;;3.32;;
2710;SDS011;20721;47.402;8.550;2023-09-18T01:10:06;3.68;;;3.68;;
2710;SDS011;20721;47.402;8.550;2023-09-18T01:14:44;3.53;;;3.53;;
2710;SDS011;20721;47.402;8.550;2023-09-18T01:16:15;3.44;;;3.44;;
2710;SDS011;20721;47.402;8.550;2023-09-18T01:18:05;3.40;;;3.40;;
2710;SDS011;20721;47.402;8.550;2023-09-18T01:20:05;3.62;;;3.62;;
2710;SDS011;20721;47.402;8.550;2023-09-18T01:22:05;3.66;;;3.66;;
2710;SDS011;20721;47.402;8.550;2023-09-18T01:25:05;3.76;;;3.76;;
2710;SDS011;20721;47.402;8.550;2023-09-18T01:27:07;3.60;;;3.60;;
2710;SDS011;20721;47.402;8.550;2023-09-18T01:29:05;3.40;;;3.40;;
2710;SDS011;20721;47.402;8.550;2023-09-18T01:31:05;3.67;;;3.67;;
2710;SDS011;20721;47.402;8.550;2023-09-18T01:33:06;2.84;;;2.82;;
2710;SDS011;20721;47.402;8.550;2023-09-18T01:35:06;3.89;;;3.89;;
2710;SDS011;20721;47.402;8.550;2023-09-18T01:38:06;3.74;;;3.74;;
2710;SDS011;20721;47.402;8.550;2023-09-18T01:40:08;4.26;;;4.26;;
2710;SDS011;20721;47.402;8.550;2023-09-18T01:42:05;3.84;;;3.84;;
2710;SDS011;20721;47.402;8.550;2023-09-18T01:44:05;4.09;;;4.09;;
2710;SDS011;20721;47.402;8.550;2023-09-18T01:46:05;4.46;;;4.46;;
2710;SDS011;20721;47.402;8.550;2023-09-18T01:48:05;4.75;;;4.75;;
2710;SDS011;20721;47.402;8.550;2023-09-18T01:50:05;4.25;;;4.25;;
2710;SDS011;20721;47.402;8.550;2023-09-18T01:54:05;4.38;;;4.38;;
2710;SDS011;20721;47.402;8.550;2023-09-18T01:56:05;4.76;;;4.76;;
2710;SDS011;20721;47.402;8.550;2023-09-18T01:58:05;4.66;;;4.66;;
2710;SDS011;20721;47.402;8.550;2023-09-18T02:00:06;3.60;;;3.60;;
2710;SDS011;20721;47.402;8.550;2023-09-18T02:02:07;3.74;;;3.74;;
2710;SDS011;20721;47.402;8.550;2023-09-18T02:04:16;4.01;;;4.01;;
2710;SDS011;20721;47.402;8.550;2023-09-18T02:06:05;4.52;;;4.52;;
2710;SDS011;20721;47.402;8.550;2023-09-18T02:08:06;3.67;;;3.67;;
2710;SDS011;20721;47.402;8.550;2023-09-18T02:10:05;4.07;;;4.07;;
2710;SDS011;20721;47.402;8.550;2023-09-18T02:12:05;4.21;;;4.21;;
2710;SDS011;20721;47.402;8.550;2023-09-18T02:14:06;4.63;;;4.63;;
2710;SDS011;20721;47.402;8.550;2023-09-18T02:16:05;4.04;;;4.04;;
2710;SDS011;20721;47.402;8.550;2023-09-18T02:18:05;4.18;;;4.18;;
2710;SDS011;20721;47.402;8.550;2023-09-18T02:20:05;4.02;;;4.02;;
2710;SDS011;20721;47.402;8.550;2023-09-18T02:22:06;3.98;;;3.98;;
2710;SDS011;20721;47.402;8.550;2023-09-18T02:25:05;4.03;;;4.03;;
2710;SDS011;20721;47.402;8.550;2023-09-18T02:27:05;3.88;;;3.88;;
2710;SDS011;20721;47.402;8.550;2023-09-18T02:29:08;4.34;;;4.34;;
2710;SDS011;20721;47.402;8.550;2023-09-18T02:31:05;4.46;;;4.46;;
2710;SDS011;20721;47.402;8.550;2023-09-18T02:33:05;4.63;;;4.63;;
2710;SDS011;20721;47.402;8.550;2023-09-18T02:35:05;4.99;;;4.99;;
2710;SDS011;20721;47.402;8.550;2023-09-18T02:37:05;4.63;;;4.63;;
2710;SDS011;20721;47.402;8.550;2023-09-18T02:39:05;4.05;;;4.05;;
2710;SDS011;20721;47.402;8.550;2023-09-18T02:41:06;4.55;;;4.55;;
2710;SDS011;20721;47.402;8.550;2023-09-18T02:43:05;4.38;;;4.38;;
2710;SDS011;20721;47.402;8.550;2023-09-18T02:45:05;4.22;;;4.22;;
2710;SDS011;20721;47.402;8.550;2023-09-18T02:47:05;3.63;;;3.63;;
2710;SDS011;20721;47.402;8.550;2023-09-18T02:49:06;4.14;;;4.14;;
2710;SDS011;20721;47.402;8.550;2023-09-18T02:51:05;4.37;;;4.37;;
2710;SDS011;20721;47.402;8.550;2023-09-18T02:53:05;4.58;;;4.58;;
2710;SDS011;20721;47.402;8.550;2023-09-18T02:55:06;4.42;;;4.42;;
2710;SDS011;20721;47.402;8.550;2023-09-18T02:57:05;4.45;;;4.44;;
2710;SDS011;20721;47.402;8.550;2023-09-18T02:59:05;4.15;;;4.15;;
2710;SDS011;20721;47.402;8.550;2023-09-18T03:01:07;3.96;;;3.96;;
2710;SDS011;20721;47.402;8.550;2023-09-18T03:03:05;3.56;;;3.56;;
2710;SDS011;20721;47.402;8.550;2023-09-18T03:05:06;3.31;;;3.31;;
2710;SDS011;20721;47.402;8.550;2023-09-18T03:07:05;3.43;;;3.43;;
2710;SDS011;20721;47.402;8.550;2023-09-18T03:09:05;3.12;;;3.12;;
2710;SDS011;20721;47.402;8.550;2023-09-18T03:11:14;3.20;;;3.20;;
2710;SDS011;20721;47.402;8.550;2023-09-18T03:13:05;4.01;;;4.01;;
2710;SDS011;20721;47.402;8.550;2023-09-18T03:15:05;3.72;;;3.71;;
2710;SDS011;20721;47.402;8.550;2023-09-18T03:17:05;2.84;;;2.83;;
2710;SDS011;20721;47.402;8.550;2023-09-18T03:19:06;3.48;;;3.45;;
2710;SDS011;20721;47.402;8.550;2023-09-18T03:22:05;3.80;;;3.70;;
2710;SDS011;20721;47.402;8.550;2023-09-18T03:24:05;3.64;;;3.50;;
2710;SDS011;20721;47.402;8.550;2023-09-18T03:26:05;4.21;;;4.02;;
2710;SDS011;20721;47.402;8.550;2023-09-18T03:28:06;3.37;;;3.22;;
2710;SDS011;20721;47.402;8.550;2023-09-18T03:30:05;3.86;;;3.62;;
2710;SDS011;20721;47.402;8.550;2023-09-18T03:32:08;3.45;;;3.26;;
2710;SDS011;20721;47.402;8.550;2023-09-18T03:34:05;3.45;;;3.25;;
2710;SDS011;20721;47.402;8.550;2023-09-18T03:36:08;3.96;;;3.73;;
2710;SDS011;20721;47.402;8.550;2023-09-18T03:38:05;3.66;;;3.40;;
2710;SDS011;20721;47.402;8.550;2023-09-18T03:40:05;3.72;;;3.47;;
2710;SDS011;20721;47.402;8.550;2023-09-18T03:42:05;3.81;;;3.61;;
2710;SDS011;20721;47.402;8.550;2023-09-18T03:44:05;4.21;;;3.98;;
2710;SDS011;20721;47.402;8.550;2023-09-18T03:46:12;3.36;;;3.24;;
2710;SDS011;20721;47.402;8.550;2023-09-18T03:48:05;4.32;;;4.08;;
2710;SDS011;20721;47.402;8.550;2023-09-18T03:50:06;3.39;;;3.12;;
2710;SDS011;20721;47.402;8.550;2023-09-18T03:52:05;2.89;;;2.74;;
2710;SDS011;20721;47.402;8.550;2023-09-18T03:54:05;3.33;;;3.13;;
2710;SDS011;20721;47.402;8.550;2023-09-18T03:57:05;3.29;;;3.14;;
2710;SDS011;20721;47.402;8.550;2023-09-18T03:59:07;2.63;;;2.51;;
2710;SDS011;20721;47.402;8.550;2023-09-18T04:01:05;2.70;;;2.56;;
2710;SDS011;20721;47.402;8.550;2023-09-18T04:03:06;3.39;;;3.19;;
2710;SDS011;20721;47.402;8.550;2023-09-18T04:05:05;3.21;;;3.00;;
2710;SDS011;20721;47.402;8.550;2023-09-18T04:07:06;2.89;;;2.70;;
2710;SDS011;20721;47.402;8.550;2023-09-18T04:09:06;3.05;;;2.87;;
2710;SDS011;20721;47.402;8.550;2023-09-18T04:12:05;2.55;;;2.41;;
2710;SDS011;20721;47.402;8.550;2023-09-18T04:14:05;3.90;;;3.71;;
2710;SDS011;20721;47.402;8.550;2023-09-18T04:16:06;2.91;;;2.75;;
2710;SDS011;20721;47.402;8.550;2023-09-18T04:18:06;2.60;;;2.48;;
2710;SDS011;20721;47.402;8.550;2023-09-18T04:20:05;2.50;;;2.35;;
2710;SDS011;20721;47.402;8.550;2023-09-18T04:22:05;2.99;;;2.78;;
2710;SDS011;20721;47.402;8.550;2023-09-18T04:24:07;3.12;;;2.91;;
2710;SDS011;20721;47.402;8.550;2023-09-18T04:27:05;3.66;;;3.38;;
2710;SDS011;20721;47.402;8.550;2023-09-18T04:29:07;3.41;;;3.21;;
2710;SDS011;20721;47.402;8.550;2023-09-18T04:32:06;3.06;;;2.91;;
2710;SDS011;20721;47.402;8.550;2023-09-18T04:34:06;2.62;;;2.52;;
2710;SDS011;20721;47.402;8.550;2023-09-18T04:36:05;3.46;;;3.31;;
2710;SDS011;20721;47.402;8.550;2023-09-18T04:38:07;3.35;;;3.23;;
2710;SDS011;20721;47.402;8.550;2023-09-18T04:40:07;2.85;;;2.76;;
2710;SDS011;20721;47.402;8.550;2023-09-18T04:42:05;2.90;;;2.79;;
2710;SDS011;20721;47.402;8.550;2023-09-18T04:44:05;3.01;;;2.88;;
2710;SDS011;20721;47.402;8.550;2023-09-18T04:46:06;3.07;;;2.97;;
2710;SDS011;20721;47.402;8.550;2023-09-18T04:49:05;3.23;;;3.12;;
2710;SDS011;20721;47.402;8.550;2023-09-18T04:51:06;3.03;;;2.95;;
2710;SDS011;20721;47.402;8.550;2023-09-18T04:53:07;3.00;;;2.95;;
2710;SDS011;20721;47.402;8.550;2023-09-18T04:56:05;3.25;;;3.17;;
2710;SDS011;20721;47.402;8.550;2023-09-18T04:58:08;2.92;;;2.85;;
2710;SDS011;20721;47.402;8.550;2023-09-18T05:00:22;3.23;;;3.14;;
2710;SDS011;20721;47.402;8.550;2023-09-18T05:02:05;2.97;;;2.89;;
2710;SDS011;20721;47.402;8.550;2023-09-18T05:04:06;3.64;;;3.50;;
2710;SDS011;20721;47.402;8.550;2023-09-18T05:06:06;2.99;;;2.88;;
2710;SDS011;20721;47.402;8.550;2023-09-18T05:08:06;3.20;;;3.05;;
2710;SDS011;20721;47.402;8.550;2023-09-18T05:10:06;4.56;;;4.24;;
2710;SDS011;20721;47.402;8.550;2023-09-18T05:12:05;3.05;;;2.91;;
2710;SDS011;20721;47.402;8.550;2023-09-18T05:14:05;3.86;;;3.69;;
2710;SDS011;20721;47.402;8.550;2023-09-18T05:16:06;4.23;;;4.06;;
2710;SDS011;20721;47.402;8.550;2023-09-18T05:18:08;3.74;;;3.64;;
2710;SDS011;20721;47.402;8.550;2023-09-18T05:20:06;3.08;;;2.99;;
2710;SDS011;20721;47.402;8.550;2023-09-18T05:22:06;2.96;;;2.83;;
2710;SDS011;20721;47.402;8.550;2023-09-18T05:24:06;3.35;;;3.26;;
2710;SDS011;20721;47.402;8.550;2023-09-18T05:26:06;2.86;;;2.73;;
2710;SDS011;20721;47.402;8.550;2023-09-18T05:28:06;2.86;;;2.72;;
2710;SDS011;20721;47.402;8.550;2023-09-18T05:30:06;3.33;;;3.18;;
2710;SDS011;20721;47.402;8.550;2023-09-18T05:32:06;3.29;;;3.09;;
2710;SDS011;20721;47.402;8.550;2023-09-18T05:34:06;3.91;;;3.62;;
2710;SDS011;20721;47.402;8.550;2023-09-18T05:36:06;3.09;;;2.92;;
2710;SDS011;20721;47.402;8.550;2023-09-18T05:39:06;3.48;;;3.27;;
2710;SDS011;20721;47.402;8.550;2023-09-18T05:41:06;3.54;;;3.30;;
2710;SDS011;20721;47.402;8.550;2023-09-18T05:43:06;3.79;;;3.54;;
2710;SDS011;20721;47.402;8.550;2023-09-18T05:45:06;3.28;;;3.12;;
2710;SDS011;20721;47.402;8.550;2023-09-18T05:47:06;3.32;;;3.13;;
2710;SDS011;20721;47.402;8.550;2023-09-18T05:49:07;3.42;;;3.26;;
2710;SDS011;20721;47.402;8.550;2023-09-18T05:51:06;3.75;;;3.64;;
2710;SDS011;20721;47.402;8.550;2023-09-18T05:53:10;3.37;;;3.29;;
2710;SDS011;20721;47.402;8.550;2023-09-18T05:55:06;3.92;;;3.81;;
2710;SDS011;20721;47.402;8.550;2023-09-18T05:57:06;2.95;;;2.80;;
2710;SDS011;20721;47.402;8.550;2023-09-18T05:59:06;3.94;;;3.76;;
2710;SDS011;20721;47.402;8.550;2023-09-18T06:04:06;4.36;;;4.09;;
2710;SDS011;20721;47.402;8.550;2023-09-18T06:09:06;3.41;;;3.28;;
2710;SDS011;20721;47.402;8.550;2023-09-18T06:11:06;3.83;;;3.63;;
2710;SDS011;20721;47.402;8.550;2023-09-18T06:13:06;3.26;;;3.11;;
2710;SDS011;20721;47.402;8.550;2023-09-18T06:15:06;4.26;;;4.01;;
2710;SDS011;20721;47.402;8.550;2023-09-18T06:17:06;2.94;;;2.83;;
2710;SDS011;20721;47.402;8.550;2023-09-18T06:19:06;3.63;;;3.46;;
2710;SDS011;20721;47.402;8.550;2023-09-18T06:21:06;3.82;;;3.70;;
2710;SDS011;20721;47.402;8.550;2023-09-18T06:23:06;3.76;;;3.62;;
2710;SDS011;20721;47.402;8.550;2023-09-18T06:25:06;3.35;;;3.29;;
2710;SDS011;20721;47.402;8.550;2023-09-18T06:27:06;3.80;;;3.72;;
2710;SDS011;20721;47.402;8.550;2023-09-18T06:29:07;3.21;;;3.14;;
2710;SDS011;20721;47.402;8.550;2023-09-18T06:32:06;3.44;;;3.37;;
2710;SDS011;20721;47.402;8.550;2023-09-18T06:34:06;3.65;;;3.52;;
2710;SDS011;20721;47.402;8.550;2023-09-18T06:36:06;3.27;;;3.18;;
2710;SDS011;20721;47.402;8.550;2023-09-18T06:39:06;3.41;;;3.29;;
2710;SDS011;20721;47.402;8.550;2023-09-18T06:41:06;3.69;;;3.61;;
2710;SDS011;20721;47.402;8.550;2023-09-18T06:44:07;3.34;;;3.27;;
2710;SDS011;20721;47.402;8.550;2023-09-18T06:47:06;3.14;;;3.11;;
2710;SDS011;20721;47.402;8.550;2023-09-18T06:49:06;3.10;;;3.10;;
2710;SDS011;20721;47.402;8.550;2023-09-18T06:51:06;4.15;;;4.04;;
2710;SDS011;20721;47.402;8.550;2023-09-18T06:53:06;3.45;;;3.33;;
2710;SDS011;20721;47.402;8.550;2023-09-18T06:55:08;4.12;;;3.98;;
2710;SDS011;20721;47.402;8.550;2023-09-18T06:57:06;3.89;;;3.71;;
2710;SDS011;20721;47.402;8.550;2023-09-18T06:59:06;4.01;;;3.82;;
2710;SDS011;20721;47.402;8.550;2023-09-18T07:01:07;4.40;;;4.17;;
2710;SDS011;20721;47.402;8.550;2023-09-18T07:03:06;4.70;;;4.48;;
2710;SDS011;20721;47.402;8.550;2023-09-18T07:05:06;4.08;;;3.90;;
2710;SDS011;20721;47.402;8.550;2023-09-18T07:08:07;3.78;;;3.63;;
2710;SDS011;20721;47.402;8.550;2023-09-18T07:10:09;3.48;;;3.38;;
2710;SDS011;20721;47.402;8.550;2023-09-18T07:12:06;3.75;;;3.58;;
2710;SDS011;20721;47.402;8.550;2023-09-18T07:14:06;3.74;;;3.53;;
2710;SDS011;20721;47.402;8.550;2023-09-18T07:16:06;3.46;;;3.40;;
2710;SDS011;20721;47.402;8.550;2023-09-18T07:18:06;3.61;;;3.56;;
2710;SDS011;20721;47.402;8.550;2023-09-18T07:20:06;3.42;;;3.32;;
2710;SDS011;20721;47.402;8.550;2023-09-18T07:22:06;3.66;;;3.56;;
2710;SDS011;20721;47.402;8.550;2023-09-18T07:24:06;3.59;;;3.47;;
2710;SDS011;20721;47.402;8.550;2023-09-18T07:26:08;3.07;;;2.99;;
2710;SDS011;20721;47.402;8.550;2023-09-18T07:28:06;4.10;;;3.93;;
2710;SDS011;20721;47.402;8.550;2023-09-18T07:30:07;3.37;;;3.27;;
2710;SDS011;20721;47.402;8.550;2023-09-18T07:32:06;3.50;;;3.42;;
2710;SDS011;20721;47.402;8.550;2023-09-18T07:35:06;3.73;;;3.55;;
2710;SDS011;20721;47.402;8.550;2023-09-18T07:37:06;4.08;;;3.88;;
2710;SDS011;20721;47.402;8.550;2023-09-18T07:39:07;3.61;;;3.45;;
2710;SDS011;20721;47.402;8.550;2023-09-18T07:41:08;3.77;;;3.58;;
2710;SDS011;20721;47.402;8.550;2023-09-18T07:43:06;3.48;;;3.33;;
2710;SDS011;20721;47.402;8.550;2023-09-18T07:45:10;3.53;;;3.41;;
2710;SDS011;20721;47.402;8.550;2023-09-18T07:47:06;3.94;;;3.74;;
2710;SDS011;20721;47.402;8.550;2023-09-18T07:49:06;3.77;;;3.57;;
2710;SDS011;20721;47.402;8.550;2023-09-18T07:52:06;3.21;;;3.03;;
2710;SDS011;20721;47.402;8.550;2023-09-18T07:54:06;3.66;;;3.50;;
2710;SDS011;20721;47.402;8.550;2023-09-18T07:56:07;4.05;;;3.96;;
2710;SDS011;20721;47.402;8.550;2023-09-18T07:58:06;3.06;;;3.00;;
2710;SDS011;20721;47.402;8.550;2023-09-18T08:01:07;3.72;;;3.64;;
2710;SDS011;20721;47.402;8.550;2023-09-18T08:03:10;2.67;;;2.62;;
2710;SDS011;20721;47.402;8.550;2023-09-18T08:05:06;2.90;;;2.86;;
2710;SDS011;20721;47.402;8.550;2023-09-18T08:07:06;3.21;;;3.18;;
2710;SDS011;20721;47.402;8.550;2023-09-18T08:09:07;2.69;;;2.63;;
2710;SDS011;20721;47.402;8.550;2023-09-18T08:12:07;3.41;;;3.34;;
2710;SDS011;20721;47.402;8.550;2023-09-18T08:14:06;2.93;;;2.89;;
2710;SDS011;20721;47.402;8.550;2023-09-18T08:16:06;3.24;;;3.18;;
2710;SDS011;20721;47.402;8.550;2023-09-18T08:18:06;3.28;;;3.20;;
2710;SDS011;20721;47.402;8.550;2023-09-18T08:20:06;3.94;;;3.87;;
2710;SDS011;20721;47.402;8.550;2023-09-18T08:22:07;3.37;;;3.33;;
2710;SDS011;20721;47.402;8.550;2023-09-18T08:24:06;3.69;;;3.58;;
2710;SDS011;20721;47.402;8.550;2023-09-18T08:26:07;3.38;;;3.31;;
2710;SDS011;20721;47.402;8.550;2023-09-18T08:29:06;3.48;;;3.36;;
2710;SDS011;20721;47.402;8.550;2023-09-18T08:31:06;3.25;;;3.12;;
2710;SDS011;20721;47.402;8.550;2023-09-18T08:33:06;2.45;;;2.36;;
2710;SDS011;20721;47.402;8.550;2023-09-18T08:35:06;2.81;;;2.73;;
2710;SDS011;20721;47.402;8.550;2023-09-18T08:37:06;3.62;;;3.51;;
2710;SDS011;20721;47.402;8.550;2023-09-18T08:39:06;2.67;;;2.59;;
2710;SDS011;20721;47.402;8.550;2023-09-18T08:41:07;2.64;;;2.58;;
2710;SDS011;20721;47.402;8.550;2023-09-18T08:43:06;3.17;;;3.07;;
2710;SDS011;20721;47.402;8.550;2023-09-18T08:45:09;2.85;;;2.73;;
2710;SDS011;20721;47.402;8.550;2023-09-18T08:47:07;3.09;;;2.93;;
2710;SDS011;20721;47.402;8.550;2023-09-18T08:49:09;2.61;;;2.48;;
2710;SDS011;20721;47.402;8.550;2023-09-18T08:51:06;3.04;;;2.90;;
2710;SDS011;20721;47.402;8.550;2023-09-18T08:53:06;1.98;;;1.91;;
2710;SDS011;20721;47.402;8.550;2023-09-18T08:55:06;1.94;;;1.88;;
2710;SDS011;20721;47.402;8.550;2023-09-18T08:57:06;1.79;;;1.74;;
2710;SDS011;20721;47.402;8.550;2023-09-18T08:59:07;2.18;;;2.14;;
2710;SDS011;20721;47.402;8.550;2023-09-18T09:01:09;1.92;;;1.87;;
2710;SDS011;20721;47.402;8.550;2023-09-18T09:03:06;1.64;;;1.58;;
2710;SDS011;20721;47.402;8.550;2023-09-18T09:05:06;1.63;;;1.59;;
2710;SDS011;20721;47.402;8.550;2023-09-18T09:07:09;2.12;;;2.05;;
2710;SDS011;20721;47.402;8.550;2023-09-18T09:09:07;1.46;;;1.40;;
2710;SDS011;20721;47.402;8.550;2023-09-18T09:11:08;1.59;;;1.51;;
2710;SDS011;20721;47.402;8.550;2023-09-18T09:13:08;1.39;;;1.34;;
2710;SDS011;20721;47.402;8.550;2023-09-18T09:15:12;1.18;;;1.16;;
2710;SDS011;20721;47.402;8.550;2023-09-18T09:17:09;1.49;;;1.46;;
2710;SDS011;20721;47.402;8.550;2023-09-18T09:19:07;1.51;;;1.48;;
2710;SDS011;20721;47.402;8.550;2023-09-18T09:22:09;1.79;;;1.74;;
2710;SDS011;20721;47.402;8.550;2023-09-18T09:24:07;1.70;;;1.63;;
2710;SDS011;20721;47.402;8.550;2023-09-18T09:26:22;1.41;;;1.33;;
2710;SDS011;20721;47.402;8.550;2023-09-18T09:28:07;1.52;;;1.47;;
2710;SDS011;20721;47.402;8.550;2023-09-18T09:30:08;1.42;;;1.36;;
2710;SDS011;20721;47.402;8.550;2023-09-18T09:32:21;1.68;;;1.62;;
2710;SDS011;20721;47.402;8.550;2023-09-18T09:34:07;1.43;;;1.37;;
2710;SDS011;20721;47.402;8.550;2023-09-18T09:36:07;1.83;;;1.76;;
2710;SDS011;20721;47.402;8.550;2023-09-18T09:38:08;1.48;;;1.43;;
2710;SDS011;20721;47.402;8.550;2023-09-18T09:41:06;1.51;;;1.49;;
2710;SDS011;20721;47.402;8.550;2023-09-18T09:43:12;1.71;;;1.68;;
2710;SDS011;20721;47.402;8.550;2023-09-18T09:45:12;1.50;;;1.49;;
2710;SDS011;20721;47.402;8.550;2023-09-18T09:47:08;1.48;;;1.47;;
2710;SDS011;20721;47.402;8.550;2023-09-18T09:49:08;1.13;;;1.12;;
2710;SDS011;20721;47.402;8.550;2023-09-18T09:51:07;1.59;;;1.58;;
2710;SDS011;20721;47.402;8.550;2023-09-18T09:53:06;1.36;;;1.34;;
2710;SDS011;20721;47.402;8.550;2023-09-18T09:55:17;1.37;;;1.35;;
2710;SDS011;20721;47.402;8.550;2023-09-18T09:57:06;1.25;;;1.24;;
2710;SDS011;20721;47.402;8.550;2023-09-18T09:59:10;1.11;;;1.09;;
2710;SDS011;20721;47.402;8.550;2023-09-18T10:01:12;1.37;;;1.35;;
2710;SDS011;20721;47.402;8.550;2023-09-18T10:03:09;1.52;;;1.48;;
2710;SDS011;20721;47.402;8.550;2023-09-18T10:05:06;1.41;;;1.36;;
2710;SDS011;20721;47.402;8.550;2023-09-18T10:07:08;1.46;;;1.41;;
2710;SDS011;20721;47.402;8.550;2023-09-18T10:09:07;1.53;;;1.48;;
2710;SDS011;20721;47.402;8.550;2023-09-18T10:11:18;1.91;;;1.84;;
2710;SDS011;20721;47.402;8.550;2023-09-18T10:13:12;1.52;;;1.46;;
2710;SDS011;20721;47.402;8.550;2023-09-18T10:15:13;1.70;;;1.63;;
2710;SDS011;20721;47.402;8.550;2023-09-18T10:17:14;1.61;;;1.56;;
2710;SDS011;20721;47.402;8.550;2023-09-18T10:19:21;1.36;;;1.31;;
2710;SDS011;20721;47.402;8.550;2023-09-18T10:21:18;1.19;;;1.14;;
2710;SDS011;20721;47.402;8.550;2023-09-18T10:23:12;1.23;;;1.17;;
2710;SDS011;20721;47.402;8.550;2023-09-18T10:25:11;1.10;;;1.04;;
2710;SDS011;20721;47.402;8.550;2023-09-18T10:27:08;1.08;;;1.04;;
2710;SDS011;20721;47.402;8.550;2023-09-18T10:29:09;1.40;;;1.34;;
2710;SDS011;20721;47.402;8.550;2023-09-18T10:31:07;1.31;;;1.31;;
2710;SDS011;20721;47.402;8.550;2023-09-18T10:33:09;1.11;;;1.11;;
2710;SDS011;20721;47.402;8.550;2023-09-18T10:35:08;1.40;;;1.40;;
2710;SDS011;20721;47.402;8.550;2023-09-18T10:37:07;1.40;;;1.37;;
2710;SDS011;20721;47.402;8.550;2023-09-18T10:39:09;1.41;;;1.38;;
2710;SDS011;20721;47.402;8.550;2023-09-18T10:41:07;1.61;;;1.57;;
2710;SDS011;20721;47.402;8.550;2023-09-18T10:43:07;1.97;;;1.92;;
2710;SDS011;20721;47.402;8.550;2023-09-18T10:45:08;1.85;;;1.77;;
2710;SDS011;20721;47.402;8.550;2023-09-18T10:47:08;1.67;;;1.62;;
2710;SDS011;20721;47.402;8.550;2023-09-18T10:49:08;1.60;;;1.55;;
2710;SDS011;20721;47.402;8.550;2023-09-18T10:51:09;1.74;;;1.68;;
2710;SDS011;20721;47.402;8.550;2023-09-18T10:53:07;1.37;;;1.33;;
2710;SDS011;20721;47.402;8.550;2023-09-18T10:55:06;1.41;;;1.37;;
2710;SDS011;20721;47.402;8.550;2023-09-18T10:57:07;1.40;;;1.37;;
2710;SDS011;20721;47.402;8.550;2023-09-18T10:59:08;1.19;;;1.15;;
2710;SDS011;20721;47.402;8.550;2023-09-18T11:01:11;1.57;;;1.51;;
2710;SDS011;20721;47.402;8.550;2023-09-18T11:03:25;1.35;;;1.28;;
2710;SDS011;20721;47.402;8.550;2023-09-18T11:05:06;1.40;;;1.35;;
2710;SDS011;20721;47.402;8.550;2023-09-18T11:07:08;1.19;;;1.15;;
2710;SDS011;20721;47.402;8.550;2023-09-18T11:09:09;1.20;;;1.17;;
2710;SDS011;20721;47.402;8.550;2023-09-18T11:11:09;1.09;;;1.06;;
2710;SDS011;20721;47.402;8.550;2023-09-18T11:13:15;0.94;;;0.92;;
2710;SDS011;20721;47.402;8.550;2023-09-18T11:15:07;1.66;;;1.60;;
2710;SDS011;20721;47.402;8.550;2023-09-18T11:17:09;1.60;;;1.54;;
2710;SDS011;20721;47.402;8.550;2023-09-18T11:19:09;1.81;;;1.75;;
2710;SDS011;20721;47.402;8.550;2023-09-18T11:21:24;1.28;;;1.21;;
2710;SDS011;20721;47.402;8.550;2023-09-18T11:23:43;1.76;;;1.63;;
2710;SDS011;20721;47.402;8.550;2023-09-18T11:25:48;1.73;;;1.55;;
2710;SDS011;20721;47.402;8.550;2023-09-18T11:27:07;1.79;;;1.57;;
2710;SDS011;20721;47.402;8.550;2023-09-18T11:29:10;2.10;;;1.83;;
2710;SDS011;20721;47.402;8.550;2023-09-18T11:31:11;1.81;;;1.58;;
2710;SDS011;20721;47.402;8.550;2023-09-18T11:33:07;1.55;;;1.30;;
2710;SDS011;20721;47.402;8.550;2023-09-18T11:35:16;1.95;;;1.68;;
2710;SDS011;20721;47.402;8.550;2023-09-18T11:37:22;3.69;;;3.09;;
2710;SDS011;20721;47.402;8.550;2023-09-18T11:39:13;3.11;;;2.50;;
2710;SDS011;20721;47.402;8.550;2023-09-18T11:41:24;2.69;;;2.19;;
2710;SDS011;20721;47.402;8.550;2023-09-18T11:43:38;2.32;;;1.92;;
2710;SDS011;20721;47.402;8.550;2023-09-18T11:45:15;4.17;;;3.48;;
2710;SDS011;20721;47.402;8.550;2023-09-18T11:47:09;3.03;;;2.44;;
2710;SDS011;20721;47.402;8.550;2023-09-18T11:49:08;3.46;;;2.68;;
2710;SDS011;20721;47.402;8.550;2023-09-18T11:51:08;2.30;;;1.82;;
2710;SDS011;20721;47.402;8.550;2023-09-18T11:53:07;2.25;;;1.82;;
2710;SDS011;20721;47.402;8.550;2023-09-18T11:56:10;2.51;;;2.11;;
2710;SDS011;20721;47.402;8.550;2023-09-18T11:58:12;3.05;;;2.45;;
2710;SDS011;20721;47.402;8.550;2023-09-18T12:00:25;3.56;;;2.87;;
2710;SDS011;20721;47.402;8.550;2023-09-18T12:02:31;3.07;;;2.49;;
2710;SDS011;20721;47.402;8.550;2023-09-18T12:04:10;2.08;;;1.63;;
2710;SDS011;20721;47.402;8.550;2023-09-18T12:06:08;2.12;;;1.70;;
2710;SDS011;20721;47.402;8.550;2023-09-18T12:08:07;1.90;;;1.56;;
2710;SDS011;20721;47.402;8.550;2023-09-18T12:10:07;1.92;;;1.59;;
2710;SDS011;20721;47.402;8.550;2023-09-18T12:12:08;1.75;;;1.47;;
2710;SDS011;20721;47.402;8.550;2023-09-18T12:14:08;2.27;;;1.95;;
2710;SDS011;20721;47.402;8.550;2023-09-18T12:16:11;1.79;;;1.53;;
2710;SDS011;20721;47.402;8.550;2023-09-18T12:18:17;2.48;;;2.10;;
2710;SDS011;20721;47.402;8.550;2023-09-18T12:20:09;2.72;;;2.25;;
2710;SDS011;20721;47.402;8.550;2023-09-18T12:22:07;2.67;;;2.23;;
2710;SDS011;20721;47.402;8.550;2023-09-18T12:24:12;2.75;;;2.22;;
2710;SDS011;20721;47.402;8.550;2023-09-18T12:26:09;2.78;;;2.28;;
2710;SDS011;20721;47.402;8.550;2023-09-18T12:28:09;2.57;;;2.15;;
2710;SDS011;20721;47.402;8.550;2023-09-18T12:30:09;2.18;;;1.89;;
2710;SDS011;20721;47.402;8.550;2023-09-18T12:32:09;2.88;;;2.51;;
2710;SDS011;20721;47.402;8.550;2023-09-18T12:34:23;2.44;;;2.17;;
2710;SDS011;20721;47.402;8.550;2023-09-18T12:36:07;1.82;;;1.63;;
2710;SDS011;20721;47.402;8.550;2023-09-18T12:38:16;2.87;;;2.60;;
2710;SDS011;20721;47.402;8.550;2023-09-18T12:42:07;2.46;;;2.15;;
2710;SDS011;20721;47.402;8.550;2023-09-18T12:44:07;1.99;;;1.79;;
2710;SDS011;20721;47.402;8.550;2023-09-18T12:46:11;1.59;;;1.47;;
2710;SDS011;20721;47.402;8.550;2023-09-18T12:48:07;1.93;;;1.80;;
2710;SDS011;20721;47.402;8.550;2023-09-18T12:50:13;2.63;;;2.52;;